Airfield :
LOGIN :

Register | Disclaimer

   EN    FR    IT 

 










Legend :    VFR   Marginal VFR   IFR   Intensive IFR   Very Intensive IFR
Visi :
Ceiling :
>= 8 km
>= 3000ft
5 to 8 km
1000 to 3000 ft
1500m to 5 km
500 to 1000 ft
800 to 1500m
200 to 500 ft
< 800m
< 200 ft
Symbols :   Thunderstorms  Fog  Heavy snow  Heavy precipitations  Wind > 20 kt
SIGMETs :     Misc.  Thunderstorms  Icing  Turbulence  Mountain Waves  Volcanic Ashes







- Airport Elevation : 290 ft
- IATA code : OSI


LDOS - Osijek

CURRENT METAR :
  • 191500Z VRB02KT CAVOK 16/M01 Q1018

EXPIRED METARs :
  • 191430Z VRB01KT CAVOK 16/M01 Q1018
  • 191400Z VRB03KT CAVOK 16/00 Q1018
  • 191330Z VRB04KT CAVOK 16/01 Q1019
  • 191300Z 00000KT CAVOK 17/01 Q1019
  • 191230Z VRB01KT CAVOK 15/01 Q1019

TAF TAF LDOS
Valid from the 19 at 12:00 until the 20 at 12:00 UTC


191125Z 1912/2012 VRB02KT CAVOK TX14/1913Z TNM01/2004Z
BECMG 1919/1921 29007KT
PROB40 2004/2008 3000 MIFG BR
No reported NOTAMs for that airfield.



MET'MAP, your aeronautical weather chart ! - Copyright ORBIFLY December 2007 - Disclaimer

ORBIFLY MET'MAP TEAM :

Programming & Development : Alexandra Zaïnal
Concept & Development : Baudouin d'Aumeries
Co-Development & Prog : Marc-Olivier Méhu
Technical & hardware support : Manuel Goepfert

Contact : metmap@orbifly.com




SOURCES & CREDITS :

   NOAA